Time;durP1;ratioP1;P1;durP2;ratioP2;P2;SDS_P1;SDS_P2;PMS_P1;PMS_P2;Temp;Humidity;BMP_temperature;BMP_pressure;BME280_temperature;BME280_humidity;BME280_pressure;Samples;Min_cycle;Max_cycle;Signal;HPM_P1;HPM_P2
2023/09/23 00:00:41;;;;;;;1.25;0.70;;;;;;;12.00;79.86;97515.22;4987104;28;20227;-78
2023/09/23 00:03:17;;;;;;;0.90;0.70;;;;;;;12.20;79.23;97526.69;4987039;28;20195;-78
2023/09/23 00:05:44;;;;;;;1.45;0.70;;;;;;;12.05;79.56;97535.19;4984231;28;20666;-78
2023/09/23 00:08:12;;;;;;;1.13;0.90;;;;;;;12.07;79.33;97526.81;4985552;28;20198;-78
2023/09/23 00:10:39;;;;;;;0.93;0.88;;;;;;;11.99;79.06;97530.69;4987122;28;20559;-78
2023/09/23 00:13:06;;;;;;;1.35;0.90;;;;;;;12.00;78.52;97532.34;4987753;28;20321;-78
2023/09/23 00:15:36;;;;;;;0.80;0.80;;;;;;;11.99;78.74;97525.25;4986165;28;20282;-79
2023/09/23 00:18:05;;;;;;;1.75;0.80;;;;;;;12.10;78.41;97521.78;4979586;28;20282;-79
2023/09/23 00:20:32;;;;;;;1.13;0.90;;;;;;;12.02;78.45;97530.19;4985297;28;20341;-79
2023/09/23 00:23:02;;;;;;;0.85;0.80;;;;;;;12.03;78.03;97534.56;4988096;28;20698;-78
2023/09/23 00:25:28;;;;;;;0.90;0.90;;;;;;;12.09;77.95;97536.41;4986611;28;20278;-78
2023/09/23 00:27:55;;;;;;;1.08;0.98;;;;;;;12.06;77.07;97534.13;4985243;28;20710;-78
2023/09/23 00:30:23;;;;;;;1.55;0.90;;;;;;;11.93;77.34;97539.69;4986813;28;20739;-78
2023/09/23 00:32:50;;;;;;;1.67;0.80;;;;;;;11.91;77.88;97541.81;4989469;28;20211;-79
2023/09/23 00:35:18;;;;;;;0.70;0.70;;;;;;;12.02;77.91;97546.47;4984044;28;20278;-78
2023/09/23 00:37:48;;;;;;;0.93;0.80;;;;;;;11.76;78.35;97539.41;4984164;28;20316;-79
2023/09/23 00:40:17;;;;;;;1.23;0.90;;;;;;;11.80;79.05;97545.22;4986936;28;21139;-78
2023/09/23 00:42:47;;;;;;;0.85;0.80;;;;;;;11.73;78.94;97547.97;4986699;28;20205;-78
2023/09/23 00:45:17;;;;;;;1.67;0.80;;;;;;;11.82;78.48;97540.41;4989026;28;20667;-79
2023/09/23 00:47:44;;;;;;;1.10;0.90;;;;;;;11.81;78.26;97537.94;4989646;28;20306;-79
2023/09/23 00:50:17;;;;;;;1.88;0.80;;;;;;;11.75;78.69;97540.44;4990971;28;20222;-78
2023/09/23 00:52:46;;;;;;;1.25;0.85;;;;;;;11.82;78.52;97545.00;4989854;28;20207;-78
2023/09/23 00:55:16;;;;;;;1.00;0.90;;;;;;;11.71;78.52;97544.63;4989001;28;20199;-78
2023/09/23 00:57:47;;;;;;;1.10;0.80;;;;;;;11.81;78.63;97533.34;4989982;28;20289;-79
2023/09/23 01:00:17;;;;;;;1.10;0.93;;;;;;;11.68;78.42;97533.44;4990508;28;20230;-78
2023/09/23 01:02:47;;;;;;;1.05;0.80;;;;;;;11.63;78.61;97531.38;4988628;28;20286;-79
2023/09/23 01:05:18;;;;;;;1.35;0.90;;;;;;;11.45;79.17;97529.44;4989099;28;20293;-78
2023/09/23 01:07:48;;;;;;;1.38;0.80;;;;;;;11.62;78.62;97534.31;4991620;28;20307;-79
2023/09/23 01:10:16;;;;;;;1.30;0.90;;;;;;;11.79;77.87;97527.31;4992109;28;20301;-79
2023/09/23 01:12:43;;;;;;;0.90;0.70;;;;;;;11.59;78.13;97532.88;4991418;28;20231;-79
2023/09/23 01:15:11;;;;;;;0.80;0.80;;;;;;;11.50;78.31;97536.91;4985559;28;20203;-79
2023/09/23 01:17:38;;;;;;;0.80;0.70;;;;;;;11.51;77.80;97532.31;4988032;28;20218;-79
2023/09/23 01:20:10;;;;;;;2.10;0.98;;;;;;;11.37;78.75;97542.44;4987839;28;20758;-79
2023/09/23 01:22:39;;;;;;;1.73;0.98;;;;;;;11.37;78.64;97542.44;4992177;28;20206;-79
2023/09/23 01:25:06;;;;;;;1.00;0.80;;;;;;;11.34;78.67;97549.13;4988306;28;20261;-79
2023/09/23 01:27:34;;;;;;;1.23;1.00;;;;;;;11.28;78.79;97543.75;4990393;28;20214;-79
2023/09/23 01:30:03;;;;;;;1.10;1.00;;;;;;;11.31;78.54;97560.41;4989741;28;20721;-80
2023/09/23 01:32:36;;;;;;;1.30;0.90;;;;;;;11.27;79.19;97561.03;4986673;28;20199;-80
2023/09/23 01:35:04;;;;;;;1.30;1.05;;;;;;;11.31;78.62;97568.53;4988470;28;20266;-77
2023/09/23 01:37:31;;;;;;;1.13;1.00;;;;;;;11.30;79.25;97566.84;4990053;28;20215;-79
2023/09/23 01:39:59;;;;;;;1.10;0.95;;;;;;;11.27;79.28;97564.59;4990517;28;20206;-79
2023/09/23 01:42:28;;;;;;;1.00;0.90;;;;;;;11.33;78.84;97563.72;4987949;28;21222;-79
2023/09/23 01:44:57;;;;;;;3.92;0.70;;;;;;;11.43;78.62;97568.63;4988842;28;20211;-79
2023/09/23 01:47:24;;;;;;;1.00;0.90;;;;;;;11.29;78.82;97576.03;4985493;28;20274;-79
2023/09/23 01:49:51;;;;;;;1.40;1.00;;;;;;;11.30;78.86;97577.69;4990396;28;20329;-78
2023/09/23 01:52:17;;;;;;;1.42;1.00;;;;;;;11.23;79.25;97579.59;4989735;28;20713;-78
2023/09/23 01:54:45;;;;;;;1.10;0.82;;;;;;;11.26;78.50;97584.59;4988641;28;20678;-79
2023/09/23 01:57:16;;;;;;;1.75;0.95;;;;;;;11.34;78.18;97591.63;4988941;28;21158;-79
2023/09/23 01:59:43;;;;;;;1.08;0.93;;;;;;;11.35;78.26;97585.19;4990159;28;20234;-78
2023/09/23 02:02:10;;;;;;;1.20;0.90;;;;;;;11.32;77.81;97586.44;4987728;28;20781;-78
2023/09/23 02:04:39;;;;;;;1.98;0.77;;;;;;;11.42;78.29;97584.06;4989360;28;20203;-79
2023/09/23 02:07:06;;;;;;;3.53;1.17;;;;;;;11.41;77.94;97576.97;4985246;28;20223;-79
2023/09/23 02:09:34;;;;;;;1.42;0.90;;;;;;;11.43;77.37;97580.31;4989854;28;20210;-79
2023/09/23 02:12:01;;;;;;;1.73;0.95;;;;;;;11.44;77.02;97586.56;4988382;28;20210;-79
2023/09/23 02:14:29;;;;;;;1.10;0.80;;;;;;;11.36;77.43;97590.38;4990178;28;20195;-78
2023/09/23 02:16:57;;;;;;;1.10;0.80;;;;;;;11.43;77.00;97601.97;4988774;28;20694;-79
2023/09/23 02:19:24;;;;;;;1.10;0.85;;;;;;;11.28;77.56;97601.47;4989817;28;20305;-79
2023/09/23 02:21:51;;;;;;;1.73;0.82;;;;;;;11.34;77.37;97605.19;4985797;28;20233;-78
2023/09/23 02:24:18;;;;;;;0.80;0.80;;;;;;;11.38;77.22;97611.81;4988126;28;21873;-79
2023/09/23 02:26:46;;;;;;;2.75;1.20;;;;;;;11.30;77.51;97615.63;4989817;28;20313;-78
2023/09/23 02:29:14;;;;;;;0.90;0.77;;;;;;;11.22;78.11;97629.41;4987805;28;20202;-79
2023/09/23 02:31:46;;;;;;;0.95;0.80;;;;;;;11.21;78.58;97618.78;4988169;28;20209;-78
2023/09/23 02:34:16;;;;;;;1.05;0.75;;;;;;;11.15;78.05;97615.06;4987731;28;20946;-78
2023/09/23 02:36:45;;;;;;;1.73;0.90;;;;;;;11.25;77.68;97609.19;4990322;28;20225;-80
2023/09/23 02:39:15;;;;;;;1.25;1.00;;;;;;;11.16;77.41;97611.31;4984308;28;20202;-79
2023/09/23 02:41:45;;;;;;;2.15;0.80;;;;;;;11.25;77.29;97630.88;4987551;28;20239;-78
2023/09/23 02:44:14;;;;;;;2.65;0.80;;;;;;;11.06;77.84;97625.31;4987909;28;20243;-78
2023/09/23 02:46:42;;;;;;;1.33;0.90;;;;;;;11.18;77.77;97643.59;4987509;28;20288;-79
2023/09/23 02:49:09;;;;;;;2.33;1.20;;;;;;;11.17;77.60;97634.66;4987918;28;20199;-78
2023/09/23 02:51:37;;;;;;;1.10;0.85;;;;;;;11.05;78.25;97636.34;4987171;28;20209;-79
2023/09/23 02:54:04;;;;;;;1.30;1.00;;;;;;;11.12;77.86;97642.56;4987881;28;20947;-79
2023/09/23 02:56:31;;;;;;;1.00;0.80;;;;;;;11.21;77.46;97649.41;4985110;28;20559;-79
2023/09/23 02:58:59;;;;;;;1.00;0.90;;;;;;;11.07;78.35;97647.81;4987231;28;20902;-79
2023/09/23 03:01:27;;;;;;;1.45;0.70;;;;;;;11.21;77.93;97652.13;4987585;28;20233;-79
2023/09/23 03:03:56;;;;;;;1.25;0.80;;;;;;;11.24;77.46;97656.28;4989119;28;20230;-79
2023/09/23 03:06:23;;;;;;;1.73;0.80;;;;;;;11.31;77.31;97652.50;4985769;28;20226;-78
2023/09/23 03:08:54;;;;;;;1.42;0.80;;;;;;;11.09;78.35;97654.69;4987924;28;20741;-79
2023/09/23 03:11:21;;;;;;;1.50;1.10;;;;;;;11.11;78.37;97668.00;4984784;28;20297;-79
2023/09/23 03:13:49;;;;;;;1.40;0.90;;;;;;;10.81;79.90;97666.88;4986067;28;20293;-78
2023/09/23 03:16:28;;;;;;;1.50;1.00;;;;;;;10.88;80.32;97671.22;4987733;28;20218;-79
2023/09/23 03:19:10;;;;;;;2.75;1.00;;;;;;;10.89;80.54;97672.06;4987122;28;20202;-79
2023/09/23 03:21:42;;;;;;;1.00;0.88;;;;;;;10.86;81.28;97680.59;4988950;28;20295;-78
2023/09/23 03:24:11;;;;;;;3.58;1.05;;;;;;;10.86;81.45;97681.44;4986679;28;20297;-79
2023/09/23 03:26:37;;;;;;;1.10;1.00;;;;;;;10.82;81.75;97680.19;4987670;28;20590;-78
2023/09/23 03:29:06;;;;;;;1.40;1.00;;;;;;;10.67;82.76;97682.31;4985549;28;20589;-79
2023/09/23 03:31:33;;;;;;;1.45;0.90;;;;;;;10.48;83.68;97686.72;4984363;28;20228;-79
2023/09/23 03:34:03;;;;;;;0.90;0.90;;;;;;;10.70;82.97;97692.72;4986791;28;20230;-78
2023/09/23 03:36:31;;;;;;;1.73;0.90;;;;;;;10.52;83.55;97695.25;4986759;28;21035;-78
2023/09/23 03:39:00;;;;;;;1.45;1.10;;;;;;;10.41;84.03;97702.09;4983742;28;20235;-78
2023/09/23 03:41:27;;;;;;;1.60;1.10;;;;;;;10.43;84.16;97702.72;4985893;28;20234;-79
2023/09/23 03:43:54;;;;;;;2.75;1.13;;;;;;;10.30;84.79;97705.47;4986454;28;20726;-78
2023/09/23 03:46:21;;;;;;;2.97;1.13;;;;;;;10.36;84.37;97708.19;4987063;28;20210;-79
2023/09/23 03:48:48;;;;;;;1.00;0.90;;;;;;;10.40;84.16;97698.56;4986882;28;20606;-79
2023/09/23 03:51:16;;;;;;;1.30;1.20;;;;;;;10.35;84.57;97705.69;4988236;28;20653;-78
2023/09/23 03:53:44;;;;;;;1.10;0.93;;;;;;;10.29;83.98;97696.53;4988263;28;20230;-79
2023/09/23 03:56:10;;;;;;;1.40;1.02;;;;;;;10.35;84.57;97717.31;4985019;28;20318;-79
2023/09/23 03:58:38;;;;;;;1.80;1.17;;;;;;;10.51;84.00;97713.34;4986577;28;20496;-79
2023/09/23 04:01:10;;;;;;;1.48;1.00;;;;;;;10.51;83.86;97705.22;4986493;28;20322;-79
2023/09/23 04:03:37;;;;;;;0.95;0.80;;;;;;;10.53;83.09;97707.72;4986446;28;20205;-78
2023/09/23 04:06:05;;;;;;;1.15;0.80;;;;;;;10.58;82.00;97707.94;4986968;28;20266;-78
2023/09/23 04:08:33;;;;;;;1.55;0.90;;;;;;;10.53;81.51;97713.97;4986983;28;20211;-78
2023/09/23 04:11:03;;;;;;;1.20;0.90;;;;;;;10.38;81.55;97692.56;4981778;28;20213;-78
2023/09/23 04:13:30;;;;;;;1.48;0.90;;;;;;;10.58;81.11;97710.63;4986860;28;20210;-79
2023/09/23 04:16:00;;;;;;;1.05;0.90;;;;;;;10.72;80.69;97709.59;4987010;28;20264;-79
2023/09/23 04:18:27;;;;;;;1.00;0.90;;;;;;;10.62;81.28;97718.13;4984738;28;20609;-79
2023/09/23 04:20:53;;;;;;;1.83;1.00;;;;;;;10.64;81.17;97713.34;4993089;28;20608;-79
2023/09/23 04:23:20;;;;;;;1.10;0.90;;;;;;;10.67;81.19;97710.22;4990489;28;20272;-79
2023/09/23 04:25:50;;;;;;;1.20;0.90;;;;;;;10.65;81.31;97715.00;4993017;28;20227;-79
2023/09/23 04:28:16;;;;;;;1.58;1.00;;;;;;;10.67;81.43;97714.78;4989287;28;20206;-79
2023/09/23 04:30:44;;;;;;;1.73;1.10;;;;;;;10.61;81.78;97716.47;4987155;28;20655;-79
2023/09/23 04:33:11;;;;;;;0.82;0.82;;;;;;;10.61;82.15;97711.06;4991230;28;20203;-79
2023/09/23 04:35:38;;;;;;;1.52;1.13;;;;;;;10.55;82.28;97716.47;4991543;28;20281;-79
2023/09/23 04:38:05;;;;;;;1.20;1.10;;;;;;;10.63;81.82;97714.38;4991633;28;20719;-78
2023/09/23 04:40:32;;;;;;;1.50;1.40;;;;;;;10.56;82.35;97713.56;4989893;28;20578;-80
2023/09/23 04:43:04;;;;;;;1.15;1.05;;;;;;;10.63;82.14;97725.22;4988940;28;20288;-79
2023/09/23 04:45:31;;;;;;;1.90;1.20;;;;;;;10.57;82.41;97731.47;4986221;28;20282;-80
2023/09/23 04:47:57;;;;;;;1.55;1.30;;;;;;;10.47;82.78;97731.03;4989741;28;20201;-76
2023/09/23 04:50:24;;;;;;;1.30;1.20;;;;;;;10.65;82.54;97728.53;4989772;28;20225;-80
2023/09/23 04:52:52;;;;;;;2.65;1.38;;;;;;;10.46;83.31;97728.53;4991444;28;20202;-81
2023/09/23 04:55:19;;;;;;;1.80;1.30;;;;;;;10.53;83.05;97726.66;4987265;28;20223;-80
2023/09/23 04:57:45;;;;;;;1.35;1.25;;;;;;;10.44;83.72;97736.88;4988970;28;20198;-81
2023/09/23 05:00:19;;;;;;;4.40;1.60;;;;;;;10.42;83.92;97745.19;4993106;28;20211;-80
2023/09/23 05:02:48;;;;;;;1.27;1.17;;;;;;;10.38;84.29;97745.84;4989436;28;20230;-81
2023/09/23 05:05:15;;;;;;;1.65;1.50;;;;;;;10.39;83.84;97747.50;4984349;28;20706;-80
2023/09/23 05:07:42;;;;;;;1.35;1.20;;;;;;;10.51;83.34;97748.53;4991068;28;20285;-81
2023/09/23 05:10:12;;;;;;;1.80;1.20;;;;;;;10.46;83.58;97748.31;4991499;28;20276;-81
2023/09/23 05:12:40;;;;;;;2.65;1.30;;;;;;;10.32;83.57;97750.19;4990582;28;20276;-81
2023/09/23 05:15:09;;;;;;;1.23;0.93;;;;;;;10.26;83.56;97761.00;4988748;28;20223;-80
2023/09/23 05:17:38;;;;;;;1.25;1.15;;;;;;;10.28;83.91;97758.94;4988045;28;20543;-81
2023/09/23 05:20:16;;;;;;;2.40;1.33;;;;;;;10.36;83.75;97766.84;4992238;28;20958;-80
2023/09/23 05:22:43;;;;;;;1.40;1.30;;;;;;;10.47;82.85;97777.03;4986527;28;20728;-80
2023/09/23 05:25:11;;;;;;;2.80;1.20;;;;;;;10.22;82.85;97725.44;4989152;28;20215;-81
2023/09/23 05:27:38;;;;;;;2.15;1.10;;;;;;;10.55;83.03;97771.41;4988321;28;20277;-80
2023/09/23 05:30:08;;;;;;;1.33;1.23;;;;;;;10.69;82.39;97778.50;4991018;28;20210;-79
2023/09/23 05:32:37;;;;;;;2.08;1.25;;;;;;;10.54;82.58;97769.75;4980226;28;20286;-81
2023/09/23 05:35:09;;;;;;;3.03;1.08;;;;;;;10.63;82.31;97784.75;4988632;28;20856;-82
2023/09/23 05:37:36;;;;;;;2.85;1.42;;;;;;;10.68;82.69;97782.25;4979669;28;20199;-78
2023/09/23 05:40:19;;;;;;;1.23;1.05;;;;;;;10.71;81.79;97764.75;4982746;28;20344;-79
2023/09/23 05:42:47;;;;;;;2.85;1.20;;;;;;;11.19;80.88;97783.41;4987213;28;20238;-80
2023/09/23 05:45:14;;;;;;;1.63;1.40;;;;;;;11.21;80.73;97787.56;4981061;28;21705;-79
2023/09/23 05:47:41;;;;;;;2.15;1.20;;;;;;;11.65;78.77;97797.66;4987134;28;20227;-79
2023/09/23 05:50:10;;;;;;;1.17;1.08;;;;;;;11.89;77.53;97801.53;4988826;28;20207;-78
2023/09/23 05:52:37;;;;;;;1.60;1.20;;;;;;;12.02;76.11;97785.16;4989895;28;20289;-79
2023/09/23 05:55:04;;;;;;;1.20;1.10;;;;;;;12.20;75.74;97808.03;4990137;28;20302;-80
2023/09/23 05:57:31;;;;;;;1.38;1.10;;;;;;;12.07;76.04;97815.19;4988600;28;20210;-80
2023/09/23 05:59:58;;;;;;;1.40;1.30;;;;;;;12.07;75.88;97817.91;4989511;28;20213;-80
2023/09/23 06:02:25;;;;;;;1.83;1.33;;;;;;;12.04;75.77;97821.03;4986049;28;20297;-82
2023/09/23 06:04:52;;;;;;;1.33;1.23;;;;;;;11.93;76.18;97824.44;4988704;28;20215;-80
2023/09/23 06:07:20;;;;;;;1.80;1.25;;;;;;;11.98;76.25;97826.53;4988505;28;20595;-80
2023/09/23 06:09:47;;;;;;;1.30;1.20;;;;;;;11.94;76.34;97831.53;4985686;28;20227;-80
2023/09/23 06:12:14;;;;;;;1.63;1.27;;;;;;;11.80;77.29;97835.34;4987544;28;20194;-81
2023/09/23 06:14:40;;;;;;;2.13;1.40;;;;;;;11.75;77.81;97845.97;4987840;28;20199;-81
2023/09/23 06:17:07;;;;;;;1.40;1.30;;;;;;;11.61;78.54;97849.78;4986810;28;20197;-81
2023/09/23 06:19:34;;;;;;;1.65;1.15;;;;;;;11.77;78.60;97852.03;4985803;28;20283;-80
2023/09/23 06:22:01;;;;;;;1.30;1.20;;;;;;;11.77;78.93;97857.47;4983369;28;20389;-80
2023/09/23 06:24:29;;;;;;;1.55;1.00;;;;;;;12.19;77.87;97856.03;4983806;28;20203;-80
2023/09/23 06:26:56;;;;;;;1.58;1.23;;;;;;;12.41;75.97;97860.06;4982521;28;20203;-82
2023/09/23 06:29:23;;;;;;;2.45;1.30;;;;;;;12.62;75.79;97861.63;4979415;28;20192;-75
2023/09/23 06:31:50;;;;;;;2.17;1.00;;;;;;;12.82;75.18;97860.63;4981837;28;20199;-80
2023/09/23 06:34:37;;;;;;;1.47;1.00;;;;;;;13.28;72.59;97860.28;4969330;28;20626;-73
2023/09/23 06:37:05;;;;;;;1.40;1.30;;;;;;;13.96;71.01;97862.88;4974314;28;20461;-75
2023/09/23 06:39:33;;;;;;;1.00;0.90;;;;;;;14.81;67.79;97868.22;4976163;28;20486;-75
2023/09/23 06:42:00;;;;;;;1.10;1.00;;;;;;;15.51;64.05;97869.13;4971884;28;20450;-74
2023/09/23 06:44:27;;;;;;;1.67;0.90;;;;;;;15.77;61.92;97871.38;4985926;28;20462;-74
2023/09/23 06:46:54;;;;;;;0.90;0.70;;;;;;;15.45;63.49;97879.06;4976031;28;20550;-74
2023/09/23 06:49:21;;;;;;;1.60;1.07;;;;;;;15.50;63.37;97874.81;4981603;28;20470;-74
2023/09/23 06:51:48;;;;;;;1.63;1.03;;;;;;;15.76;62.57;97874.34;4983223;28;20460;-74
2023/09/23 06:54:14;;;;;;;2.90;1.30;;;;;;;15.83;61.90;97879.66;4975000;28;20458;-74
2023/09/23 06:56:43;;;;;;;2.37;0.90;;;;;;;16.38;60.60;97885.47;4977415;28;20505;-73
2023/09/23 06:59:10;;;;;;;2.67;1.03;;;;;;;16.82;59.53;97889.34;4972501;28;20857;-80
2023/09/23 07:01:37;;;;;;;1.43;0.90;;;;;;;16.95;57.13;97896.38;4974618;28;20465;-76
2023/09/23 07:04:05;;;;;;;1.40;0.90;;;;;;;16.88;57.39;97903.94;4972508;28;20504;-76
2023/09/23 07:06:33;;;;;;;1.53;1.00;;;;;;;17.11;56.27;97910.09;4985872;28;20473;-70
2023/09/23 07:08:59;;;;;;;1.37;0.90;;;;;;;16.95;56.49;97910.06;4976523;28;20466;-75
2023/09/23 07:11:26;;;;;;;0.97;0.87;;;;;;;16.76;56.78;97913.00;4986926;28;20505;-83
2023/09/23 07:13:55;;;;;;;0.90;0.80;;;;;;;16.65;56.52;97915.78;4985970;28;20536;-81
2023/09/23 07:16:22;;;;;;;1.30;1.07;;;;;;;17.07;55.45;97908.09;4966117;28;21333;-81
2023/09/23 07:18:50;;;;;;;1.00;0.90;;;;;;;16.94;55.39;97913.88;4969752;28;20567;-82
2023/09/23 07:21:17;;;;;;;1.07;0.87;;;;;;;16.69;56.17;97917.78;4982819;28;20518;-81
2023/09/23 07:23:44;;;;;;;0.80;0.80;;;;;;;16.92;54.01;97916.00;4980078;28;20490;-83
2023/09/23 07:26:12;;;;;;;3.73;1.30;;;;;;;16.79;55.92;97912.53;4976606;28;20549;-82
2023/09/23 07:28:38;;;;;;;1.30;0.90;;;;;;;16.58;55.67;97904.97;4984738;28;20454;-79
2023/09/23 07:31:11;;;;;;;0.80;0.80;;;;;;;16.48;56.17;97914.88;4980997;28;20581;-81
2023/09/23 07:33:38;;;;;;;1.43;1.17;;;;;;;16.75;55.95;97916.00;4980251;28;20466;-82
2023/09/23 07:36:10;;;;;;;2.60;1.20;;;;;;;17.27;54.30;97921.28;4985706;28;20487;-80
2023/09/23 07:38:36;;;;;;;1.30;1.00;;;;;;;17.23;54.20;97926.41;4988216;28;20466;-81
2023/09/23 07:41:03;;;;;;;1.10;1.00;;;;;;;16.82;55.47;97929.53;4989273;28;20497;-80
2023/09/23 07:43:30;;;;;;;1.13;1.03;;;;;;;17.30;54.02;97934.47;4987746;28;20490;-82
2023/09/23 07:45:57;;;;;;;2.30;1.17;;;;;;;17.92;52.84;97940.69;4986947;28;20478;-81
2023/09/23 07:48:25;;;;;;;1.37;0.90;;;;;;;18.72;51.06;97939.28;4984032;28;20464;-82
2023/09/23 07:50:54;;;;;;;1.53;1.07;;;;;;;18.33;51.30;97943.97;4972655;28;20627;-81
2023/09/23 07:53:21;;;;;;;1.20;1.03;;;;;;;17.85;51.91;97956.47;4977184;28;20450;-81
2023/09/23 07:55:47;;;;;;;1.00;0.90;;;;;;;17.97;52.01;97962.66;4970451;28;21181;-81
2023/09/23 07:58:15;;;;;;;1.10;0.87;;;;;;;18.08;52.16;97959.00;4976943;28;20972;-82
2023/09/23 08:00:41;;;;;;;0.93;0.83;;;;;;;17.89;51.70;97960.34;4982229;28;21004;-78
2023/09/23 08:03:08;;;;;;;1.80;1.20;;;;;;;17.30;52.83;97967.28;4986169;28;20491;-78
2023/09/23 08:05:36;;;;;;;2.63;1.03;;;;;;;17.55;52.83;97970.44;4980444;28;20477;-79
2023/09/23 08:08:04;;;;;;;1.53;1.00;;;;;;;17.33;53.43;97973.09;4981457;28;20460;-76
2023/09/23 08:10:31;;;;;;;1.83;1.00;;;;;;;18.13;51.59;97975.50;4985658;28;20458;-76
2023/09/23 08:12:57;;;;;;;1.10;0.83;;;;;;;18.71;49.33;97985.06;4987774;28;20444;-76
2023/09/23 08:15:24;;;;;;;0.87;0.80;;;;;;;18.31;49.81;97984.50;4988061;28;20474;-76
2023/09/23 08:17:51;;;;;;;1.20;1.10;;;;;;;18.03;50.93;97986.31;4988650;28;20486;-76
2023/09/23 08:20:21;;;;;;;1.57;1.00;;;;;;;18.37;50.18;97995.28;4988513;28;20509;-76
2023/09/23 08:22:50;;;;;;;2.07;1.00;;;;;;;18.16;50.34;97998.00;4987997;28;20591;-76
2023/09/23 08:25:17;;;;;;;1.20;0.90;;;;;;;18.15;50.92;97994.44;4986133;28;20497;-76
2023/09/23 08:27:45;;;;;;;1.00;0.90;;;;;;;17.79;51.62;97998.53;4989266;28;20466;-76
2023/09/23 08:30:13;;;;;;;2.40;1.30;;;;;;;18.91;48.89;98006.41;4990160;28;20468;-76
2023/09/23 08:32:40;;;;;;;2.03;1.10;;;;;;;18.56;49.66;98012.25;4989534;28;20454;-76
2023/09/23 08:35:08;;;;;;;1.10;0.93;;;;;;;17.90;50.69;98025.00;4987686;28;20548;-76
2023/09/23 08:37:35;;;;;;;1.53;1.00;;;;;;;18.67;49.18;98005.03;4989036;28;20509;-76
2023/09/23 08:40:06;;;;;;;1.50;0.77;;;;;;;19.45;48.19;98018.28;4986615;28;20462;-76
2023/09/23 08:42:35;;;;;;;0.80;0.80;;;;;;;19.57;47.38;98014.53;4989249;28;20476;-76
2023/09/23 08:45:03;;;;;;;2.67;1.23;;;;;;;19.16;47.48;98014.13;4988452;28;20842;-76
2023/09/23 08:47:30;;;;;;;1.63;1.00;;;;;;;18.66;48.36;98008.84;4988396;28;20469;-76
2023/09/23 08:49:57;;;;;;;1.40;0.90;;;;;;;19.01;49.01;98016.69;4988642;28;20872;-76
2023/09/23 08:52:26;;;;;;;1.30;1.20;;;;;;;18.84;48.51;98015.94;4989250;28;20460;-77
2023/09/23 08:54:53;;;;;;;2.93;1.20;;;;;;;18.43;48.90;98023.59;4986485;28;20480;-76
2023/09/23 08:57:22;;;;;;;2.07;1.10;;;;;;;18.86;48.62;98019.22;4989084;28;20450;-76
2023/09/23 08:59:48;;;;;;;2.50;1.23;;;;;;;19.01;47.80;98017.50;4989077;28;20459;-77
2023/09/23 09:02:16;;;;;;;1.70;0.90;;;;;;;19.56;47.73;98030.19;4989319;28;20462;-77
2023/09/23 09:04:43;;;;;;;1.57;1.20;;;;;;;20.03;46.07;98024.84;4988154;28;20596;-77
2023/09/23 09:07:10;;;;;;;1.57;1.10;;;;;;;20.68;44.89;98031.03;4991952;28;21183;-77
2023/09/23 09:09:37;;;;;;;2.90;0.97;;;;;;;19.79;45.07;98034.53;4992433;28;20494;-77
2023/09/23 09:12:05;;;;;;;1.83;1.20;;;;;;;19.99;45.39;98040.19;4992791;28;20499;-76
2023/09/23 09:14:34;;;;;;;2.20;1.30;;;;;;;19.33;46.20;98036.81;4991757;28;20554;-77
2023/09/23 09:17:01;;;;;;;1.13;0.90;;;;;;;19.82;44.41;98044.97;4991189;28;20960;-77
2023/09/23 09:19:28;;;;;;;1.70;1.00;;;;;;;19.74;46.19;98029.00;4991818;28;20456;-77
2023/09/23 09:21:57;;;;;;;1.10;1.00;;;;;;;20.45;44.91;98024.06;4990964;28;20453;-76
2023/09/23 09:24:25;;;;;;;2.27;1.07;;;;;;;20.86;43.60;98029.72;4991413;28;20514;-77
2023/09/23 09:26:53;;;;;;;1.53;1.00;;;;;;;21.49;42.02;98019.50;4992145;28;20537;-77
2023/09/23 09:29:20;;;;;;;1.87;1.10;;;;;;;21.36;41.09;98026.38;4991954;28;20457;-77
2023/09/23 09:31:49;;;;;;;1.43;1.13;;;;;;;20.31;43.10;98014.56;4992141;28;20454;-77
2023/09/23 09:34:19;;;;;;;1.47;1.13;;;;;;;20.28;42.70;98024.19;4989140;28;20580;-77
2023/09/23 09:36:46;;;;;;;1.70;1.33;;;;;;;20.23;42.82;98024.13;4991970;28;20457;-77
2023/09/23 09:39:16;;;;;;;1.77;1.13;;;;;;;20.54;43.53;98025.19;4991839;28;21287;-77
2023/09/23 09:41:46;;;;;;;1.63;1.10;;;;;;;21.43;41.31;98022.25;4992355;28;20454;-77
2023/09/23 09:44:14;;;;;;;1.10;0.90;;;;;;;21.84;40.87;98016.78;4991221;28;20520;-77
2023/09/23 09:46:42;;;;;;;1.43;1.00;;;;;;;21.78;40.04;98028.88;4990667;28;20489;-77
2023/09/23 09:49:11;;;;;;;2.20;1.00;;;;;;;22.19;38.53;98027.00;4991169;28;20458;-77
2023/09/23 09:51:41;;;;;;;2.27;0.90;;;;;;;21.45;39.49;98022.78;4990677;28;20536;-77
2023/09/23 09:54:09;;;;;;;2.20;1.00;;;;;;;21.40;40.24;98027.47;4991870;28;20478;-77
2023/09/23 09:56:37;;;;;;;1.63;1.00;;;;;;;21.16;40.94;98026.25;4990965;28;21028;-77
2023/09/23 09:59:03;;;;;;;3.97;1.40;;;;;;;20.90;41.10;98025.34;4991500;28;20457;-77
2023/09/23 10:01:30;;;;;;;1.10;1.00;;;;;;;20.97;40.01;98020.44;4991673;28;20454;-77
2023/09/23 10:03:59;;;;;;;3.43;1.20;;;;;;;21.13;39.81;98027.63;4991068;28;21089;-77
2023/09/23 10:06:27;;;;;;;2.50;1.30;;;;;;;20.36;40.70;98018.19;4990776;28;20458;-77
2023/09/23 10:08:54;;;;;;;1.50;1.17;;;;;;;19.62;42.68;98026.41;4990155;28;20504;-77
2023/09/23 10:11:31;;;;;;;1.10;0.93;;;;;;;19.88;41.84;98027.44;4991682;28;20458;-77
2023/09/23 10:13:57;;;;;;;1.53;1.20;;;;;;;20.22;41.52;98011.47;4991313;28;20458;-77
2023/09/23 10:16:28;;;;;;;1.50;1.10;;;;;;;20.58;40.48;98031.81;4988593;28;20873;-77
2023/09/23 10:18:56;;;;;;;2.10;0.90;;;;;;;20.54;40.74;98027.94;4990536;28;20552;-77
2023/09/23 10:21:24;;;;;;;1.50;0.97;;;;;;;19.99;41.35;98023.69;4990684;28;20815;-77
2023/09/23 10:23:53;;;;;;;3.10;1.33;;;;;;;19.68;42.28;98030.03;4990045;28;20540;-77
2023/09/23 10:26:23;;;;;;;2.03;0.90;;;;;;;19.76;42.27;98035.88;4989625;28;20450;-77
2023/09/23 10:28:57;;;;;;;1.30;1.00;;;;;;;19.69;42.45;98034.44;4990518;28;20458;-77
2023/09/23 10:31:26;;;;;;;1.57;1.00;;;;;;;20.35;41.10;98029.44;4990542;28;20533;-77
2023/09/23 10:33:54;;;;;;;1.30;0.83;;;;;;;20.53;41.12;98029.03;4988624;28;20711;-77
2023/09/23 10:36:22;;;;;;;1.30;1.07;;;;;;;19.84;40.83;98026.31;4989915;28;20477;-77
2023/09/23 10:38:49;;;;;;;1.53;1.00;;;;;;;19.53;42.32;98036.19;4986071;28;20465;-77
2023/09/23 10:41:17;;;;;;;4.93;1.30;;;;;;;19.99;40.90;97990.72;4990222;28;20464;-77
2023/09/23 10:43:44;;;;;;;1.50;0.93;;;;;;;21.53;38.31;98023.34;4990164;28;20484;-77
2023/09/23 10:46:11;;;;;;;2.60;1.20;;;;;;;22.52;36.90;98033.81;4990580;28;20456;-78
2023/09/23 10:48:38;;;;;;;0.80;0.80;;;;;;;22.69;35.68;98030.75;4987269;28;20545;-78
2023/09/23 10:51:06;;;;;;;2.30;1.17;;;;;;;22.96;35.80;98028.47;4989249;28;20540;-78
2023/09/23 10:53:32;;;;;;;3.90;1.10;;;;;;;21.58;36.09;98029.69;4990610;28;20464;-78
2023/09/23 10:56:01;;;;;;;1.93;1.00;;;;;;;20.83;38.13;98035.78;4990357;28;20470;-77
2023/09/23 10:58:31;;;;;;;1.30;1.20;;;;;;;22.23;37.05;98030.84;4986487;28;20562;-76
2023/09/23 11:00:58;;;;;;;2.30;1.23;;;;;;;23.40;34.95;98028.50;4989643;28;20938;-78
2023/09/23 11:03:25;;;;;;;1.30;1.00;;;;;;;24.19;32.97;98034.88;4987968;28;20464;-78
2023/09/23 11:05:52;;;;;;;1.73;1.00;;;;;;;24.93;32.16;98028.03;4989908;28;20577;-78
2023/09/23 11:08:19;;;;;;;1.37;1.00;;;;;;;25.59;31.51;98029.13;4988338;28;20822;-78
2023/09/23 11:10:49;;;;;;;1.90;1.20;;;;;;;25.74;31.19;98031.69;4989677;28;20500;-78
2023/09/23 11:13:16;;;;;;;2.67;1.63;;;;;;;25.41;30.99;98028.81;4989266;28;20963;-78
2023/09/23 11:15:46;;;;;;;1.93;1.20;;;;;;;25.37;30.94;98035.25;4989024;28;20545;-77
2023/09/23 11:18:14;;;;;;;2.53;1.37;;;;;;;24.78;31.32;98031.81;4988380;28;20466;-78
2023/09/23 11:20:42;;;;;;;2.10;1.10;;;;;;;24.75;31.47;98035.16;4987938;28;20460;-78
2023/09/23 11:23:10;;;;;;;1.83;1.03;;;;;;;25.08;31.39;98029.81;4986717;28;20977;-78
2023/09/23 11:25:38;;;;;;;1.17;1.00;;;;;;;25.20;29.88;97996.97;4989335;28;21103;-77
2023/09/23 11:28:05;;;;;;;1.37;1.20;;;;;;;24.72;31.07;98034.91;4988325;28;20484;-78
2023/09/23 11:30:32;;;;;;;2.70;1.43;;;;;;;24.71;30.45;98031.31;4987260;28;20533;-78
2023/09/23 11:32:59;;;;;;;2.53;1.17;;;;;;;24.54;32.13;98036.50;4988545;28;20461;-78
2023/09/23 11:35:27;;;;;;;1.47;1.03;;;;;;;25.19;30.57;98036.88;4987907;28;20585;-78
2023/09/23 11:37:55;;;;;;;1.80;1.07;;;;;;;25.32;30.18;98027.84;4988613;28;20488;-77